Terminal Aerodrome Forecast
Issued by NWS

Current Version | Previous Version | Text Only | Print | Product List | Glossary On
Versions: 1 2 3 4 5 6 7 8 9 10 11 12 13 14 15 16 17 18 19 20 21 22 23 24 25 26 27 28 29 30 31 32 33 34 35 36 37 38 39
000
FTUS43 KDMX 282335
TAFOTM
TAF
KOTM 282335Z 2900/2924 14012KT P6SM BKN250
     FM290100 21013KT P6SM SCT015 BKN250
     FM290700 32020G28KT P6SM BKN015
     FM291200 32025G36KT P6SM OVC008
     FM291900 32021G28KT P6SM BKN013=

USA.gov is the U.S. government's official web portal to all federal, state and local government web resources and services.